Kezdőlap
METAR-TAF:

METAR-TAF

Repülőterek :

Polokwane, Dél-afrikai Köztársaság

földrajzi szélesség: 23-50-43S, földrajzi hosszúság: 29-27-31E, magasság: 1242 m

Jelenlegi meteorológiai megfigyelések

A jelentés 38 perccel ezelõtt készült, 01:00 UTC
Kelet-északkeleti szél 2 kt
Hőmérséklet 9°C
Páratartalom 76%
Légköri nyomás 1031 hPa

METAR: FAPP 230100Z AUTO 06002KT //// // ////// 09/05 Q1031

Idő: 03:38 (01:38 UTC)

Előrejelzés

A jelentés 16 órával és 38 perccel ezelõtt készült, 09:00 UTC
Az előrejelzés 22-én 10 óra UTC és 22-én 18 óra UTC között érvényes
Keleti szél 10 kt
Látótávolság 10 km, vagy több
felhőtlen 1500 m magasságban, és nincs gomolyfelhõ

TAF: FAPP 220900Z 2210/2218 08010KT CAVOK TX20/2213Z TN14/2218Z

Meteorológiai megfigyelések és előrejelzések több, mint 4000 repülőtéren (METAR és TAF jelentéseket).

A térképen piros és sárga pontok jelzik az elérhető meteorológiai állomásokat.

Mozgassa az egeret a pont fölött, hogy megjelenjen az állomás neve.

Azután kattintson az időjárási megfigyelések és előrejelzések megtekintéséhez.

A térkép megváltoztatása: kattintson a fekete keresztel jelölt zöld gombra ráközelítéshez, a vonallal jelölt zöld gombra távolításhoz, vagy a zöld nyilakra a szomszédos térképek eléréséhez.


METAR-TAF: